sim
Sign-in with your pilot id or email,
or register
Callsign
Passwort

Schedule Details

Flight Number: DLH1947 (1)
Departure: Genoa Cristoforo Colombo Airport (LIMJ) at 05:20
Arrival: Munich Airport (EDDM) at 06:35
Route: Lufthansa Passenger Schedule. Enter filed route here before submitting Pirep.

Weather Information
Getting current METAR information for LIMJ 231320Z 13011KT 9999 SCT030 22/18 Q1009
Getting current METAR information for EDDM 231320Z 23006KT 9000 -SHRA SCT015 SCT020CB BKN043 17/15 Q1010 RESHRA NOSIG

Schedule Frequency

Route Map